sensor_id;sensor_type;location;lat;lon;timestamp;P1;durP1;ratioP1;P2;durP2;ratioP2
44384;SDS011;30101;32.778;34.994;2022-09-20T00:02:31;5.13;;;3.17;;
44384;SDS011;30101;32.778;34.994;2022-09-20T00:07:34;6.25;;;3.22;;
44384;SDS011;30101;32.778;34.994;2022-09-20T00:12:37;3.40;;;3.10;;
44384;SDS011;30101;32.778;34.994;2022-09-20T00:17:41;5.05;;;3.50;;
44384;SDS011;30101;32.778;34.994;2022-09-20T00:22:44;6.03;;;3.40;;
44384;SDS011;30101;32.778;34.994;2022-09-20T00:27:47;7.88;;;3.40;;
44384;SDS011;30101;32.778;34.994;2022-09-20T00:32:51;6.32;;;3.13;;
44384;SDS011;30101;32.778;34.994;2022-09-20T00:37:54;6.50;;;3.35;;
44384;SDS011;30101;32.778;34.994;2022-09-20T00:42:58;8.02;;;3.40;;
44384;SDS011;30101;32.778;34.994;2022-09-20T00:48:04;7.38;;;3.70;;
44384;SDS011;30101;32.778;34.994;2022-09-20T00:53:17;8.52;;;3.42;;
44384;SDS011;30101;32.778;34.994;2022-09-20T00:58:35;5.35;;;3.03;;
44384;SDS011;30101;32.778;34.994;2022-09-20T01:03:47;5.78;;;3.65;;
44384;SDS011;30101;32.778;34.994;2022-09-20T01:08:51;3.53;;;3.22;;
44384;SDS011;30101;32.778;34.994;2022-09-20T01:13:57;5.60;;;3.25;;
44384;SDS011;30101;32.778;34.994;2022-09-20T01:19:02;5.32;;;3.10;;
44384;SDS011;30101;32.778;34.994;2022-09-20T01:24:16;5.72;;;3.38;;
44384;SDS011;30101;32.778;34.994;2022-09-20T01:34:32;8.75;;;2.90;;
44384;SDS011;30101;32.778;34.994;2022-09-20T01:39:44;6.22;;;3.40;;
44384;SDS011;30101;32.778;34.994;2022-09-20T01:50:32;4.30;;;3.10;;
44384;SDS011;30101;32.778;34.994;2022-09-20T02:23:39;6.83;;;3.37;;
44384;SDS011;30101;32.778;34.994;2022-09-20T02:29:01;4.18;;;3.20;;
44384;SDS011;30101;32.778;34.994;2022-09-20T02:34:19;9.68;;;4.10;;
44384;SDS011;30101;32.778;34.994;2022-09-20T02:39:34;5.47;;;3.38;;
44384;SDS011;30101;32.778;34.994;2022-09-20T03:00:47;7.75;;;3.50;;
44384;SDS011;30101;32.778;34.994;2022-09-20T03:06:05;7.05;;;3.58;;
44384;SDS011;30101;32.778;34.994;2022-09-20T03:44:04;5.05;;;3.40;;
44384;SDS011;30101;32.778;34.994;2022-09-20T03:54:58;10.13;;;3.38;;
44384;SDS011;30101;32.778;34.994;2022-09-20T04:00:21;6.30;;;4.32;;
44384;SDS011;30101;32.778;34.994;2022-09-20T04:32:29;8.30;;;4.18;;
44384;SDS011;30101;32.778;34.994;2022-09-20T04:37:44;4.95;;;3.72;;
44384;SDS011;30101;32.778;34.994;2022-09-20T04:43:00;7.03;;;3.70;;
44384;SDS011;30101;32.778;34.994;2022-09-20T04:59:43;9.32;;;2.80;;
44384;SDS011;30101;32.778;34.994;2022-09-20T05:05:01;7.80;;;3.30;;
44384;SDS011;30101;32.778;34.994;2022-09-20T05:10:18;10.00;;;3.53;;
44384;SDS011;30101;32.778;34.994;2022-09-20T05:15:38;4.03;;;2.92;;
44384;SDS011;30101;32.778;34.994;2022-09-20T05:26:50;3.78;;;2.50;;
44384;SDS011;30101;32.778;34.994;2022-09-20T05:32:17;6.80;;;3.10;;
44384;SDS011;30101;32.778;34.994;2022-09-20T05:42:58;8.75;;;3.38;;
44384;SDS011;30101;32.778;34.994;2022-09-20T05:53:41;5.40;;;2.97;;
44384;SDS011;30101;32.778;34.994;2022-09-20T05:59:20;8.80;;;3.40;;
44384;SDS011;30101;32.778;34.994;2022-09-20T06:14:59;8.68;;;3.20;;
44384;SDS011;30101;32.778;34.994;2022-09-20T06:20:34;7.15;;;3.60;;
44384;SDS011;30101;32.778;34.994;2022-09-20T06:30:57;4.85;;;3.55;;
44384;SDS011;30101;32.778;34.994;2022-09-20T06:36:03;9.65;;;3.28;;
44384;SDS011;30101;32.778;34.994;2022-09-20T06:41:12;8.88;;;3.72;;
44384;SDS011;30101;32.778;34.994;2022-09-20T06:46:19;7.30;;;3.83;;
44384;SDS011;30101;32.778;34.994;2022-09-20T06:51:24;7.63;;;3.40;;
44384;SDS011;30101;32.778;34.994;2022-09-20T06:56:30;9.52;;;4.38;;
44384;SDS011;30101;32.778;34.994;2022-09-20T07:01:36;8.95;;;3.63;;
44384;SDS011;30101;32.778;34.994;2022-09-20T07:06:41;10.60;;;3.75;;
44384;SDS011;30101;32.778;34.994;2022-09-20T07:11:45;14.70;;;4.03;;
44384;SDS011;30101;32.778;34.994;2022-09-20T07:16:51;9.80;;;3.60;;
44384;SDS011;30101;32.778;34.994;2022-09-20T07:21:57;19.05;;;4.88;;
44384;SDS011;30101;32.778;34.994;2022-09-20T07:27:01;19.02;;;3.92;;
44384;SDS011;30101;32.778;34.994;2022-09-20T07:32:06;11.80;;;3.80;;
44384;SDS011;30101;32.778;34.994;2022-09-20T07:37:09;12.27;;;3.42;;
44384;SDS011;30101;32.778;34.994;2022-09-20T07:42:13;6.55;;;3.03;;
44384;SDS011;30101;32.778;34.994;2022-09-20T07:47:16;10.82;;;3.67;;
44384;SDS011;30101;32.778;34.994;2022-09-20T07:52:20;8.07;;;3.10;;
44384;SDS011;30101;32.778;34.994;2022-09-20T07:57:23;9.27;;;3.85;;
44384;SDS011;30101;32.778;34.994;2022-09-20T08:02:27;12.65;;;4.20;;
44384;SDS011;30101;32.778;34.994;2022-09-20T08:07:32;9.02;;;3.17;;
44384;SDS011;30101;32.778;34.994;2022-09-20T08:12:35;18.27;;;3.33;;
44384;SDS011;30101;32.778;34.994;2022-09-20T08:17:58;11.20;;;2.80;;
44384;SDS011;30101;32.778;34.994;2022-09-20T08:23:02;5.68;;;2.50;;
44384;SDS011;30101;32.778;34.994;2022-09-20T08:28:25;8.27;;;2.50;;
44384;SDS011;30101;32.778;34.994;2022-09-20T08:33:28;11.02;;;2.95;;
44384;SDS011;30101;32.778;34.994;2022-09-20T08:38:32;6.38;;;2.85;;
44384;SDS011;30101;32.778;34.994;2022-09-20T08:44:01;20.48;;;3.40;;
44384;SDS011;30101;32.778;34.994;2022-09-20T08:49:24;6.88;;;2.65;;
44384;SDS011;30101;32.778;34.994;2022-09-20T08:54:30;7.60;;;2.53;;
44384;SDS011;30101;32.778;34.994;2022-09-20T08:59:34;11.45;;;3.25;;
44384;SDS011;30101;32.778;34.994;2022-09-20T09:04:38;6.68;;;2.80;;
44384;SDS011;30101;32.778;34.994;2022-09-20T09:09:42;7.25;;;2.50;;
44384;SDS011;30101;32.778;34.994;2022-09-20T09:14:46;3.53;;;2.70;;
44384;SDS011;30101;32.778;34.994;2022-09-20T09:19:52;7.07;;;2.60;;
44384;SDS011;30101;32.778;34.994;2022-09-20T09:30:21;7.10;;;2.78;;
44384;SDS011;30101;32.778;34.994;2022-09-20T09:35:29;11.52;;;3.05;;
44384;SDS011;30101;32.778;34.994;2022-09-20T09:40:33;6.15;;;2.63;;
44384;SDS011;30101;32.778;34.994;2022-09-20T09:45:37;5.93;;;2.92;;
44384;SDS011;30101;32.778;34.994;2022-09-20T09:50:41;6.70;;;2.72;;
44384;SDS011;30101;32.778;34.994;2022-09-20T10:01:09;9.13;;;3.25;;
44384;SDS011;30101;32.778;34.994;2022-09-20T10:06:28;7.68;;;2.72;;
44384;SDS011;30101;32.778;34.994;2022-09-20T10:17:21;7.80;;;2.88;;
44384;SDS011;30101;32.778;34.994;2022-09-20T10:22:41;8.38;;;2.88;;
44384;SDS011;30101;32.778;34.994;2022-09-20T10:39:03;8.73;;;2.85;;
44384;SDS011;30101;32.778;34.994;2022-09-20T10:54:55;10.57;;;2.83;;
44384;SDS011;30101;32.778;34.994;2022-09-20T11:10:50;9.77;;;2.92;;
44384;SDS011;30101;32.778;34.994;2022-09-20T11:17:04;11.30;;;2.60;;
44384;SDS011;30101;32.778;34.994;2022-09-20T11:22:08;9.10;;;2.80;;
44384;SDS011;30101;32.778;34.994;2022-09-20T11:27:17;6.65;;;2.58;;
44384;SDS011;30101;32.778;34.994;2022-09-20T11:32:28;8.25;;;2.58;;
44384;SDS011;30101;32.778;34.994;2022-09-20T11:37:52;7.25;;;2.30;;
44384;SDS011;30101;32.778;34.994;2022-09-20T11:43:12;5.93;;;2.65;;
44384;SDS011;30101;32.778;34.994;2022-09-20T11:48:22;4.97;;;2.35;;
44384;SDS011;30101;32.778;34.994;2022-09-20T11:58:58;11.95;;;3.00;;
44384;SDS011;30101;32.778;34.994;2022-09-20T12:09:32;10.02;;;2.72;;
44384;SDS011;30101;32.778;34.994;2022-09-20T12:14:41;13.40;;;3.25;;
44384;SDS011;30101;32.778;34.994;2022-09-20T12:19:55;8.43;;;2.10;;
44384;SDS011;30101;32.778;34.994;2022-09-20T12:30:42;8.18;;;2.40;;
44384;SDS011;30101;32.778;34.994;2022-09-20T12:35:55;12.43;;;2.67;;
44384;SDS011;30101;32.778;34.994;2022-09-20T12:41:07;7.82;;;2.60;;
44384;SDS011;30101;32.778;34.994;2022-09-20T12:46:18;10.63;;;2.75;;
44384;SDS011;30101;32.778;34.994;2022-09-20T12:51:33;8.00;;;2.40;;
44384;SDS011;30101;32.778;34.994;2022-09-20T12:56:37;9.85;;;2.60;;
44384;SDS011;30101;32.778;34.994;2022-09-20T13:01:42;10.18;;;2.58;;
44384;SDS011;30101;32.778;34.994;2022-09-20T13:06:46;5.68;;;2.40;;
44384;SDS011;30101;32.778;34.994;2022-09-20T13:11:51;7.72;;;2.60;;
44384;SDS011;30101;32.778;34.994;2022-09-20T13:22:34;11.00;;;2.25;;
44384;SDS011;30101;32.778;34.994;2022-09-20T13:27:42;7.00;;;2.63;;
44384;SDS011;30101;32.778;34.994;2022-09-20T13:38:31;9.43;;;3.35;;
44384;SDS011;30101;32.778;34.994;2022-09-20T13:43:39;7.15;;;2.65;;
44384;SDS011;30101;32.778;34.994;2022-09-20T13:48:45;6.57;;;2.33;;
44384;SDS011;30101;32.778;34.994;2022-09-20T13:53:49;4.32;;;2.30;;
44384;SDS011;30101;32.778;34.994;2022-09-20T13:58:53;7.63;;;2.50;;
44384;SDS011;30101;32.778;34.994;2022-09-20T14:04:05;9.95;;;2.17;;
44384;SDS011;30101;32.778;34.994;2022-09-20T14:09:45;9.15;;;2.67;;
44384;SDS011;30101;32.778;34.994;2022-09-20T14:14:41;7.97;;;2.88;;
44384;SDS011;30101;32.778;34.994;2022-09-20T14:19:47;6.28;;;2.38;;
44384;SDS011;30101;32.778;34.994;2022-09-20T14:25:16;4.97;;;2.40;;
44384;SDS011;30101;32.778;34.994;2022-09-20T14:30:27;8.98;;;3.20;;
44384;SDS011;30101;32.778;34.994;2022-09-20T14:35:33;3.05;;;2.28;;
44384;SDS011;30101;32.778;34.994;2022-09-20T14:40:40;5.30;;;2.75;;
44384;SDS011;30101;32.778;34.994;2022-09-20T14:45:58;10.35;;;2.97;;
44384;SDS011;30101;32.778;34.994;2022-09-20T14:51:18;5.70;;;2.50;;
44384;SDS011;30101;32.778;34.994;2022-09-20T14:56:25;6.60;;;2.53;;
44384;SDS011;30101;32.778;34.994;2022-09-20T15:01:36;6.00;;;2.53;;
44384;SDS011;30101;32.778;34.994;2022-09-20T15:06:44;7.55;;;3.22;;
44384;SDS011;30101;32.778;34.994;2022-09-20T15:11:57;5.78;;;2.67;;
44384;SDS011;30101;32.778;34.994;2022-09-20T15:17:05;11.40;;;2.80;;
44384;SDS011;30101;32.778;34.994;2022-09-20T15:22:12;7.80;;;3.40;;
44384;SDS011;30101;32.778;34.994;2022-09-20T15:27:21;9.77;;;3.05;;
44384;SDS011;30101;32.778;34.994;2022-09-20T15:32:30;9.43;;;3.05;;
44384;SDS011;30101;32.778;34.994;2022-09-20T15:37:33;9.25;;;3.00;;
44384;SDS011;30101;32.778;34.994;2022-09-20T15:42:37;9.77;;;3.55;;
44384;SDS011;30101;32.778;34.994;2022-09-20T15:47:40;9.85;;;2.97;;
44384;SDS011;30101;32.778;34.994;2022-09-20T15:52:44;10.55;;;3.22;;
44384;SDS011;30101;32.778;34.994;2022-09-20T15:57:47;12.15;;;3.47;;
44384;SDS011;30101;32.778;34.994;2022-09-20T16:02:50;19.98;;;3.13;;
44384;SDS011;30101;32.778;34.994;2022-09-20T16:07:54;44.08;;;5.70;;
44384;SDS011;30101;32.778;34.994;2022-09-20T16:12:59;7.03;;;2.65;;
44384;SDS011;30101;32.778;34.994;2022-09-20T16:18:03;8.82;;;3.10;;
44384;SDS011;30101;32.778;34.994;2022-09-20T16:23:06;10.18;;;3.10;;
44384;SDS011;30101;32.778;34.994;2022-09-20T16:28:10;7.60;;;3.20;;
44384;SDS011;30101;32.778;34.994;2022-09-20T16:33:14;10.82;;;3.20;;
44384;SDS011;30101;32.778;34.994;2022-09-20T16:38:17;8.30;;;2.90;;
44384;SDS011;30101;32.778;34.994;2022-09-20T16:43:21;7.00;;;2.60;;
44384;SDS011;30101;32.778;34.994;2022-09-20T16:48:25;10.20;;;3.10;;
44384;SDS011;30101;32.778;34.994;2022-09-20T16:53:29;23.77;;;4.13;;
44384;SDS011;30101;32.778;34.994;2022-09-20T16:58:33;8.07;;;2.72;;
44384;SDS011;30101;32.778;34.994;2022-09-20T17:03:38;9.30;;;2.78;;
44384;SDS011;30101;32.778;34.994;2022-09-20T17:08:51;4.95;;;2.05;;
44384;SDS011;30101;32.778;34.994;2022-09-20T17:14:01;5.82;;;2.55;;
44384;SDS011;30101;32.778;34.994;2022-09-20T17:19:05;4.97;;;2.00;;
44384;SDS011;30101;32.778;34.994;2022-09-20T17:24:11;7.75;;;2.40;;
44384;SDS011;30101;32.778;34.994;2022-09-20T17:29:15;6.13;;;2.38;;
44384;SDS011;30101;32.778;34.994;2022-09-20T17:34:20;9.30;;;2.58;;
44384;SDS011;30101;32.778;34.994;2022-09-20T17:39:24;7.85;;;3.03;;
44384;SDS011;30101;32.778;34.994;2022-09-20T17:44:27;7.18;;;2.60;;
44384;SDS011;30101;32.778;34.994;2022-09-20T17:49:31;8.07;;;2.60;;
44384;SDS011;30101;32.778;34.994;2022-09-20T17:54:34;7.28;;;2.80;;
44384;SDS011;30101;32.778;34.994;2022-09-20T17:59:37;7.70;;;3.03;;
44384;SDS011;30101;32.778;34.994;2022-09-20T18:04:41;5.43;;;2.65;;
44384;SDS011;30101;32.778;34.994;2022-09-20T18:09:45;6.05;;;2.85;;
44384;SDS011;30101;32.778;34.994;2022-09-20T18:14:49;9.80;;;2.55;;
44384;SDS011;30101;32.778;34.994;2022-09-20T18:19:53;7.75;;;2.95;;
44384;SDS011;30101;32.778;34.994;2022-09-20T18:24:56;4.72;;;2.47;;
44384;SDS011;30101;32.778;34.994;2022-09-20T18:30:00;8.30;;;2.58;;
44384;SDS011;30101;32.778;34.994;2022-09-20T18:35:04;7.15;;;2.80;;
44384;SDS011;30101;32.778;34.994;2022-09-20T18:40:09;10.60;;;2.83;;
44384;SDS011;30101;32.778;34.994;2022-09-20T18:45:13;7.20;;;3.08;;
44384;SDS011;30101;32.778;34.994;2022-09-20T18:50:16;9.63;;;2.90;;
44384;SDS011;30101;32.778;34.994;2022-09-20T18:55:20;8.75;;;2.88;;
44384;SDS011;30101;32.778;34.994;2022-09-20T19:00:23;8.57;;;2.97;;
44384;SDS011;30101;32.778;34.994;2022-09-20T19:05:33;10.52;;;3.25;;
44384;SDS011;30101;32.778;34.994;2022-09-20T19:10:50;6.93;;;2.70;;
44384;SDS011;30101;32.778;34.994;2022-09-20T19:21:36;11.05;;;2.88;;
44384;SDS011;30101;32.778;34.994;2022-09-20T19:26:49;11.80;;;3.55;;
44384;SDS011;30101;32.778;34.994;2022-09-20T19:31:57;9.88;;;3.05;;
44384;SDS011;30101;32.778;34.994;2022-09-20T19:53:20;6.50;;;2.45;;
44384;SDS011;30101;32.778;34.994;2022-09-20T19:58:24;8.23;;;2.67;;
44384;SDS011;30101;32.778;34.994;2022-09-20T20:03:28;9.18;;;2.58;;
44384;SDS011;30101;32.778;34.994;2022-09-20T20:08:47;7.13;;;2.78;;
44384;SDS011;30101;32.778;34.994;2022-09-20T20:13:54;9.00;;;2.60;;
44384;SDS011;30101;32.778;34.994;2022-09-20T20:24:50;6.38;;;2.17;;
44384;SDS011;30101;32.778;34.994;2022-09-20T20:29:55;8.65;;;2.40;;
44384;SDS011;30101;32.778;34.994;2022-09-20T20:34:59;4.57;;;2.20;;
44384;SDS011;30101;32.778;34.994;2022-09-20T20:40:02;6.57;;;2.35;;
44384;SDS011;30101;32.778;34.994;2022-09-20T20:45:06;5.22;;;2.10;;
44384;SDS011;30101;32.778;34.994;2022-09-20T20:50:09;6.38;;;1.95;;
44384;SDS011;30101;32.778;34.994;2022-09-20T20:55:13;10.82;;;2.10;;
44384;SDS011;30101;32.778;34.994;2022-09-20T21:00:16;6.15;;;2.38;;
44384;SDS011;30101;32.778;34.994;2022-09-20T21:05:20;8.55;;;2.13;;
44384;SDS011;30101;32.778;34.994;2022-09-20T21:10:24;9.15;;;1.67;;
44384;SDS011;30101;32.778;34.994;2022-09-20T21:15:28;7.95;;;2.40;;
44384;SDS011;30101;32.778;34.994;2022-09-20T21:20:31;9.82;;;2.22;;
44384;SDS011;30101;32.778;34.994;2022-09-20T21:25:35;5.78;;;1.90;;
44384;SDS011;30101;32.778;34.994;2022-09-20T21:30:38;3.60;;;1.70;;
44384;SDS011;30101;32.778;34.994;2022-09-20T21:35:41;8.77;;;2.50;;
44384;SDS011;30101;32.778;34.994;2022-09-20T21:40:45;5.57;;;2.05;;
44384;SDS011;30101;32.778;34.994;2022-09-20T21:45:49;5.57;;;2.10;;
44384;SDS011;30101;32.778;34.994;2022-09-20T21:51:00;5.85;;;2.63;;
44384;SDS011;30101;32.778;34.994;2022-09-20T21:56:06;6.63;;;1.87;;
44384;SDS011;30101;32.778;34.994;2022-09-20T22:01:19;4.07;;;1.55;;
44384;SDS011;30101;32.778;34.994;2022-09-20T22:11:48;8.27;;;1.88;;
44384;SDS011;30101;32.778;34.994;2022-09-20T22:16:51;7.70;;;2.50;;
44384;SDS011;30101;32.778;34.994;2022-09-20T22:21:55;5.05;;;1.73;;
44384;SDS011;30101;32.778;34.994;2022-09-20T22:26:59;5.80;;;1.90;;
44384;SDS011;30101;32.778;34.994;2022-09-20T22:32:03;9.13;;;2.40;;
44384;SDS011;30101;32.778;34.994;2022-09-20T22:37:06;7.78;;;2.40;;
44384;SDS011;30101;32.778;34.994;2022-09-20T22:42:10;6.85;;;1.90;;
44384;SDS011;30101;32.778;34.994;2022-09-20T22:47:14;8.18;;;2.10;;
44384;SDS011;30101;32.778;34.994;2022-09-20T22:52:18;7.38;;;2.80;;
44384;SDS011;30101;32.778;34.994;2022-09-20T22:57:22;4.75;;;2.15;;
44384;SDS011;30101;32.778;34.994;2022-09-20T23:02:25;6.22;;;2.10;;
44384;SDS011;30101;32.778;34.994;2022-09-20T23:07:29;5.70;;;2.15;;
44384;SDS011;30101;32.778;34.994;2022-09-20T23:12:33;5.88;;;1.90;;
44384;SDS011;30101;32.778;34.994;2022-09-20T23:17:39;8.10;;;1.73;;
44384;SDS011;30101;32.778;34.994;2022-09-20T23:22:43;7.45;;;1.85;;
44384;SDS011;30101;32.778;34.994;2022-09-20T23:27:47;6.88;;;1.85;;
44384;SDS011;30101;32.778;34.994;2022-09-20T23:32:52;6.72;;;1.95;;
44384;SDS011;30101;32.778;34.994;2022-09-20T23:37:56;10.88;;;2.88;;
44384;SDS011;30101;32.778;34.994;2022-09-20T23:42:59;10.48;;;2.95;;
44384;SDS011;30101;32.778;34.994;2022-09-20T23:48:03;6.95;;;1.73;;
44384;SDS011;30101;32.778;34.994;2022-09-20T23:53:06;6.45;;;2.05;;
44384;SDS011;30101;32.778;34.994;2022-09-20T23:58:13;4.28;;;1.90;;
